createdAt,value
2022-09-09T00:01:53.434Z,17.69
2022-09-09T00:04:28.595Z,17.68
2022-09-09T00:07:05.026Z,17.69
2022-09-09T00:09:41.119Z,17.67
2022-09-09T00:12:13.668Z,17.62
2022-09-09T00:14:49.410Z,17.68
2022-09-09T00:17:26.243Z,17.54
2022-09-09T00:19:59.153Z,17.46
2022-09-09T00:22:29.627Z,17.50
2022-09-09T00:25:00.619Z,17.49
2022-09-09T00:27:34.890Z,17.30
2022-09-09T00:30:14.810Z,17.30
2022-09-09T00:32:45.474Z,17.15
2022-09-09T00:35:20.474Z,17.15
2022-09-09T00:37:52.899Z,17.07
2022-09-09T00:40:27.263Z,17.06
2022-09-09T00:43:09.620Z,17.03
2022-09-09T00:45:58.701Z,16.98
2022-09-09T00:48:37.035Z,16.90
2022-09-09T00:51:11.652Z,16.95
2022-09-09T00:53:56.534Z,16.91
2022-09-09T00:56:31.231Z,16.82
2022-09-09T00:59:08.420Z,16.72
2022-09-09T01:01:36.461Z,16.60
2022-09-09T01:04:12.508Z,16.59
2022-09-09T01:06:40.653Z,16.61
2022-09-09T01:09:17.684Z,16.63
2022-09-09T01:11:54.763Z,16.59
2022-09-09T01:14:34.463Z,16.56
2022-09-09T01:17:06.438Z,16.63
2022-09-09T01:19:46.581Z,16.55
2022-09-09T01:22:24.042Z,16.56
2022-09-09T01:25:12.017Z,16.56
2022-09-09T01:27:43.937Z,16.52
2022-09-09T01:30:13.618Z,16.51
2022-09-09T01:32:44.847Z,16.44
2022-09-09T01:35:17.023Z,16.46
2022-09-09T01:37:44.927Z,16.36
2022-09-09T01:40:12.615Z,16.34
2022-09-09T01:42:41.952Z,16.30
2022-09-09T01:45:10.960Z,16.30
2022-09-09T01:47:38.645Z,16.27
2022-09-09T01:50:07.424Z,16.26
2022-09-09T01:52:38.091Z,16.19
2022-09-09T01:55:07.239Z,16.12
2022-09-09T01:57:48.411Z,16.14
2022-09-09T02:00:17.375Z,16.14
2022-09-09T02:02:57.878Z,16.14
2022-09-09T02:05:32.677Z,16.06
2022-09-09T02:08:07.530Z,16.06
2022-09-09T02:10:42.878Z,16.03
2022-09-09T02:13:14.875Z,16.02
2022-09-09T02:15:49.289Z,16.08
2022-09-09T02:18:24.350Z,16.22
2022-09-09T02:20:53.547Z,16.30
2022-09-09T02:23:21.717Z,16.28
2022-09-09T02:25:52.555Z,16.36
2022-09-09T02:28:26.350Z,16.35
2022-09-09T02:30:56.184Z,16.54
2022-09-09T02:33:28.615Z,16.53
2022-09-09T02:36:04.439Z,16.59
2022-09-09T02:38:38.207Z,16.77
2022-09-09T02:41:07.314Z,16.79
2022-09-09T02:43:36.792Z,16.81
2022-09-09T02:46:14.034Z,16.81
2022-09-09T02:48:52.412Z,16.87
2022-09-09T02:51:26.357Z,16.93
2022-09-09T02:54:02.818Z,17.03
2022-09-09T02:56:34.902Z,17.08
2022-09-09T02:59:06.943Z,16.95
2022-09-09T03:01:36.164Z,16.96
2022-09-09T03:04:05.982Z,16.86
2022-09-09T03:06:33.714Z,16.84
2022-09-09T03:09:02.907Z,16.84
2022-09-09T03:11:31.033Z,16.92
2022-09-09T03:13:58.696Z,17.01
2022-09-09T03:16:27.681Z,16.89
2022-09-09T03:18:55.391Z,16.91
2022-09-09T03:21:23.099Z,16.84
2022-09-09T03:23:50.782Z,16.82
2022-09-09T03:26:18.482Z,16.76
2022-09-09T03:28:46.078Z,16.67
2022-09-09T03:31:13.853Z,16.56
2022-09-09T03:33:43.325Z,16.57
2022-09-09T03:36:11.502Z,16.59
2022-09-09T03:38:39.040Z,16.52
2022-09-09T03:41:08.710Z,16.57
2022-09-09T03:43:37.372Z,16.60
2022-09-09T03:46:05.152Z,16.54
2022-09-09T03:48:32.967Z,16.67
2022-09-09T03:51:03.397Z,16.62
2022-09-09T03:53:31.508Z,16.66
2022-09-09T03:56:00.920Z,16.57
2022-09-09T03:58:29.322Z,16.60
2022-09-09T04:00:58.489Z,16.55
2022-09-09T04:03:28.283Z,16.63
2022-09-09T04:05:57.817Z,16.57
2022-09-09T04:08:27.225Z,16.58
2022-09-09T04:10:59.132Z,16.52
2022-09-09T04:13:27.597Z,16.48
2022-09-09T04:15:56.835Z,16.29
2022-09-09T04:18:25.328Z,16.24
2022-09-09T04:20:54.443Z,16.24
2022-09-09T04:23:22.150Z,16.13
2022-09-09T04:25:52.592Z,16.05
2022-09-09T04:28:22.246Z,16.01
2022-09-09T04:30:49.992Z,16.15
2022-09-09T04:33:18.626Z,16.18
2022-09-09T04:35:47.917Z,16.09
2022-09-09T04:38:15.795Z,16.15
2022-09-09T04:40:44.574Z,16.12
2022-09-09T04:43:14.634Z,16.13
2022-09-09T04:45:42.416Z,16.14
2022-09-09T04:48:10.641Z,16.18
2022-09-09T04:50:38.287Z,16.26
2022-09-09T04:53:06.840Z,16.22
2022-09-09T04:55:35.974Z,16.31
2022-09-09T04:58:06.765Z,16.32
2022-09-09T05:00:37.189Z,16.35
2022-09-09T05:03:06.459Z,16.45
2022-09-09T05:05:35.621Z,16.46
2022-09-09T05:08:04.896Z,16.56
2022-09-09T05:10:32.862Z,16.58
2022-09-09T05:13:00.427Z,16.66
2022-09-09T05:15:28.053Z,16.67
2022-09-09T05:18:01.148Z,16.82
2022-09-09T05:20:29.172Z,16.88
2022-09-09T05:22:57.347Z,16.96
2022-09-09T05:25:26.912Z,17.03
2022-09-09T05:27:55.471Z,17.03
2022-09-09T05:30:25.658Z,17.15
2022-09-09T05:32:53.213Z,17.06
2022-09-09T05:35:22.050Z,17.17
2022-09-09T05:37:49.639Z,17.11
2022-09-09T05:40:17.308Z,17.10
2022-09-09T05:42:44.942Z,17.06
2022-09-09T05:45:12.643Z,17.13
2022-09-09T05:47:40.421Z,17.16
2022-09-09T05:50:08.640Z,17.21
2022-09-09T05:52:37.705Z,17.31
2022-09-09T05:55:06.390Z,17.20
2022-09-09T05:57:34.178Z,17.20
2022-09-09T06:00:02.191Z,17.21
2022-09-09T06:02:29.885Z,17.25
2022-09-09T06:05:00.644Z,17.23
2022-09-09T06:07:28.402Z,17.26
2022-09-09T06:09:57.319Z,17.25
2022-09-09T06:12:24.989Z,17.33
2022-09-09T06:14:52.745Z,17.32
2022-09-09T06:17:20.397Z,17.44
2022-09-09T06:19:48.005Z,17.69
2022-09-09T06:22:15.650Z,17.93
2022-09-09T06:24:43.217Z,18.40
2022-09-09T06:27:14.695Z,18.91
2022-09-09T06:29:42.282Z,20.43
2022-09-09T06:32:10.462Z,22.03
2022-09-09T06:34:38.440Z,21.92
2022-09-09T06:37:07.196Z,21.49
2022-09-09T06:39:34.837Z,21.04
2022-09-09T06:42:02.553Z,20.67
2022-09-09T06:44:35.288Z,20.49
2022-09-09T06:47:03.270Z,20.22
2022-09-09T06:49:30.871Z,20.25
2022-09-09T06:51:58.477Z,20.25
2022-09-09T06:54:26.676Z,20.51
2022-09-09T06:56:54.431Z,20.31
2022-09-09T06:59:22.373Z,20.28
2022-09-09T07:01:55.749Z,20.47
2022-09-09T07:04:23.877Z,20.19
2022-09-09T07:06:53.316Z,20.22
2022-09-09T07:09:21.017Z,20.88
2022-09-09T07:11:51.567Z,21.42
2022-09-09T07:14:19.098Z,21.22
2022-09-09T07:16:47.699Z,20.90
2022-09-09T07:19:17.247Z,20.83
2022-09-09T07:21:45.255Z,20.53
2022-09-09T07:24:13.846Z,20.47
2022-09-09T07:26:42.351Z,20.04
2022-09-09T07:29:10.754Z,19.72
2022-09-09T07:31:40.861Z,19.43
2022-09-09T07:34:09.276Z,19.17
2022-09-09T07:36:40.176Z,19.16
2022-09-09T07:39:10.891Z,19.05
2022-09-09T07:41:40.741Z,19.09
2022-09-09T07:44:10.333Z,18.95
2022-09-09T07:46:40.314Z,19.22
2022-09-09T07:49:08.025Z,19.46
2022-09-09T07:51:40.231Z,19.54
2022-09-09T07:54:10.381Z,19.74
2022-09-09T07:56:40.245Z,19.73
2022-09-09T07:59:09.622Z,19.78
2022-09-09T08:01:40.342Z,19.58
2022-09-09T08:04:10.514Z,19.38
2022-09-09T08:06:41.374Z,19.38
2022-09-09T08:09:10.374Z,19.07
2022-09-09T08:11:39.313Z,18.98
2022-09-09T08:14:08.544Z,18.97
2022-09-09T08:16:38.356Z,19.12
2022-09-09T08:19:08.168Z,19.47
2022-09-09T08:21:39.217Z,19.76
2022-09-09T08:24:09.012Z,20.09
2022-09-09T08:26:38.871Z,20.45
2022-09-09T08:29:08.851Z,20.62
2022-09-09T08:31:38.063Z,21.07
2022-09-09T08:34:06.830Z,21.31
2022-09-09T08:36:36.909Z,21.21
2022-09-09T08:39:06.715Z,21.30
2022-09-09T08:42:01.492Z,21.54
2022-09-09T08:44:44.401Z,21.76
2022-09-09T08:47:31.771Z,21.71
2022-09-09T08:50:13.625Z,21.59
2022-09-09T08:52:50.895Z,22.02
2022-09-09T08:55:28.922Z,21.93
2022-09-09T08:58:02.029Z,21.89
2022-09-09T09:00:37.564Z,21.70
2022-09-09T09:03:11.660Z,21.47
2022-09-09T09:05:47.615Z,21.51
2022-09-09T09:08:26.466Z,21.18
2022-09-09T09:10:59.167Z,21.16
2022-09-09T09:13:41.670Z,21.36
2022-09-09T09:16:20.305Z,21.46
2022-09-09T09:18:48.120Z,21.65
2022-09-09T09:21:22.643Z,21.61
2022-09-09T09:23:57.857Z,21.71
2022-09-09T09:26:27.829Z,22.22
2022-09-09T09:28:58.408Z,22.25
2022-09-09T09:31:27.763Z,22.00
2022-09-09T09:33:59.496Z,21.92
2022-09-09T09:36:36.880Z,21.56
2022-09-09T09:41:55.243Z,21.49
2022-09-09T09:44:29.370Z,21.35
2022-09-09T09:47:08.519Z,20.65
2022-09-09T09:49:36.419Z,20.62
2022-09-09T09:52:05.468Z,20.44
2022-09-09T09:54:36.947Z,20.48
2022-09-09T09:57:12.575Z,20.43
2022-09-09T09:59:41.749Z,20.27
2022-09-09T10:02:22.019Z,20.20
2022-09-09T10:04:49.793Z,20.04
2022-09-09T10:07:21.023Z,20.27
2022-09-09T10:09:54.131Z,20.15
2022-09-09T10:12:32.657Z,20.20
2022-09-09T10:15:07.852Z,20.23
2022-09-09T10:17:43.028Z,20.38
2022-09-09T10:20:26.716Z,20.49
2022-09-09T10:23:05.173Z,20.77
2022-09-09T10:25:52.701Z,21.91
2022-09-09T10:28:48.297Z,22.67
2022-09-09T10:31:26.102Z,23.08
2022-09-09T10:34:04.970Z,22.88
2022-09-09T10:36:32.686Z,23.10
2022-09-09T10:39:05.074Z,23.46
2022-09-09T10:41:47.236Z,23.47
2022-09-09T10:44:25.139Z,23.39
2022-09-09T10:47:30.211Z,23.21
2022-09-09T10:50:14.472Z,23.15
2022-09-09T10:52:56.234Z,22.87
2022-09-09T10:55:30.086Z,22.92
2022-09-09T10:58:00.350Z,22.40
2022-09-09T11:00:39.813Z,21.84
2022-09-09T11:03:13.556Z,21.28
2022-09-09T11:05:45.808Z,21.11
2022-09-09T11:08:19.035Z,21.05
2022-09-09T11:10:53.505Z,21.11
2022-09-09T11:13:27.140Z,21.30
2022-09-09T11:16:00.798Z,21.82
2022-09-09T11:18:33.750Z,22.16
2022-09-09T11:21:05.354Z,22.09
2022-09-09T11:23:42.251Z,21.84
2022-09-09T11:26:17.322Z,21.73
2022-09-09T11:29:04.093Z,21.86
2022-09-09T11:31:46.502Z,22.29
2022-09-09T11:34:41.495Z,22.72
2022-09-09T11:37:26.397Z,22.79
2022-09-09T11:40:10.745Z,22.96
2022-09-09T11:42:39.023Z,22.90
2022-09-09T11:45:22.603Z,23.07
2022-09-09T11:47:55.554Z,23.25
2022-09-09T11:50:38.478Z,23.70
2022-09-09T11:53:28.594Z,23.65
2022-09-09T11:56:05.627Z,23.39
2022-09-09T11:58:39.888Z,22.94
2022-09-09T12:01:29.151Z,22.55
2022-09-09T12:04:09.093Z,22.18
2022-09-09T12:06:47.422Z,22.05
2022-09-09T12:09:25.195Z,21.75
2022-09-09T12:11:53.089Z,21.55
2022-09-09T12:14:36.190Z,21.78
2022-09-09T12:17:12.552Z,21.99
2022-09-09T12:19:40.129Z,22.24
2022-09-09T12:22:19.366Z,22.22
2022-09-09T12:24:54.730Z,22.07
2022-09-09T12:27:27.952Z,22.04
2022-09-09T12:30:02.402Z,22.06
2022-09-09T12:32:31.075Z,22.09
2022-09-09T12:35:02.782Z,22.06
2022-09-09T12:37:37.052Z,21.97
2022-09-09T12:40:06.612Z,21.86
2022-09-09T12:42:39.157Z,21.97
2022-09-09T12:45:19.613Z,21.87
2022-09-09T12:47:51.743Z,21.70
2022-09-09T12:50:23.143Z,21.79
2022-09-09T12:52:54.686Z,21.52
2022-09-09T12:55:26.144Z,19.99
2022-09-09T12:57:54.671Z,19.39
2022-09-09T13:00:25.075Z,18.73
2022-09-09T13:02:54.683Z,18.46
2022-09-09T13:05:25.173Z,18.44
2022-09-09T13:08:03.755Z,18.63
2022-09-09T13:10:43.280Z,19.10
2022-09-09T13:13:23.143Z,19.32
2022-09-09T13:15:53.509Z,19.58
2022-09-09T13:18:25.194Z,19.78
2022-09-09T13:20:53.616Z,20.06
2022-09-09T13:23:23.691Z,20.20
2022-09-09T13:25:59.190Z,20.30
2022-09-09T13:28:28.511Z,20.06
2022-09-09T13:31:03.764Z,19.83
2022-09-09T13:33:34.667Z,19.70
2022-09-09T13:36:06.036Z,19.76
2022-09-09T13:38:37.558Z,19.97
2022-09-09T13:41:07.143Z,20.28
2022-09-09T13:43:39.431Z,20.07
2022-09-09T13:46:26.857Z,20.43
2022-09-09T13:48:59.068Z,20.67
2022-09-09T13:51:35.466Z,20.89
2022-09-09T13:54:04.667Z,20.94
2022-09-09T13:56:32.764Z,21.03
2022-09-09T13:59:00.406Z,21.11
2022-09-09T14:01:29.655Z,21.33
2022-09-09T14:03:57.541Z,21.34
2022-09-09T14:06:25.397Z,21.22
2022-09-09T14:08:53.399Z,21.08
2022-09-09T14:11:23.129Z,20.70
2022-09-09T14:13:51.424Z,20.40
2022-09-09T14:16:19.434Z,20.20
2022-09-09T14:18:47.993Z,19.93
2022-09-09T14:21:16.649Z,19.56
2022-09-09T14:23:44.277Z,19.48
2022-09-09T14:26:11.913Z,19.28
2022-09-09T14:28:56.706Z,19.19
2022-09-09T14:31:24.660Z,19.20
2022-09-09T14:33:55.460Z,19.21
2022-09-09T14:36:23.788Z,19.23
2022-09-09T14:38:51.649Z,19.29
2022-09-09T14:41:21.055Z,19.33
2022-09-09T14:43:50.588Z,19.45
2022-09-09T14:46:20.656Z,19.62
2022-09-09T14:48:49.443Z,19.77
2022-09-09T14:51:18.770Z,19.72
2022-09-09T14:53:47.545Z,19.97
2022-09-09T14:56:17.378Z,19.99
2022-09-09T14:58:45.753Z,19.99
2022-09-09T15:01:17.017Z,20.19
2022-09-09T15:03:51.022Z,20.35
2022-09-09T15:06:19.237Z,20.67
2022-09-09T15:08:50.425Z,20.88
2022-09-09T15:11:18.170Z,20.71
2022-09-09T15:13:46.193Z,20.79
2022-09-09T15:16:17.543Z,20.82
2022-09-09T15:18:47.214Z,20.57
2022-09-09T15:21:16.520Z,20.40
2022-09-09T15:23:44.773Z,20.20
2022-09-09T15:26:13.086Z,20.09
2022-09-09T15:28:40.781Z,20.23
2022-09-09T15:31:11.845Z,20.25
2022-09-09T15:33:40.827Z,20.20
2022-09-09T15:36:15.758Z,20.35
2022-09-09T15:38:44.892Z,20.41
2022-09-09T15:41:13.202Z,20.63
2022-09-09T15:43:41.328Z,20.91
2022-09-09T15:46:27.091Z,20.81
2022-09-09T15:48:57.987Z,20.74
2022-09-09T15:51:44.011Z,20.56
2022-09-09T15:54:14.071Z,20.37
2022-09-09T15:56:42.383Z,20.21
2022-09-09T15:59:09.994Z,20.10
2022-09-09T16:01:38.798Z,19.94
2022-09-09T16:04:08.186Z,19.75
2022-09-09T16:06:36.206Z,19.62
2022-09-09T16:09:06.319Z,19.48
2022-09-09T16:11:36.741Z,19.49
2022-09-09T16:14:06.223Z,19.56
2022-09-09T16:16:36.065Z,19.43
2022-09-09T16:19:10.430Z,19.42
2022-09-09T16:21:40.923Z,19.31
2022-09-09T16:24:10.062Z,19.28
2022-09-09T16:26:40.069Z,19.34
2022-09-09T16:29:07.896Z,19.27
2022-09-09T16:31:35.606Z,19.24
2022-09-09T16:34:04.120Z,19.11
2022-09-09T16:36:35.789Z,19.06
2022-09-09T16:39:05.723Z,19.03
2022-09-09T16:41:34.312Z,18.98
2022-09-09T16:44:05.391Z,18.93
2022-09-09T16:46:36.379Z,18.98
2022-09-09T16:49:06.778Z,18.91
2022-09-09T16:51:37.931Z,18.95
2022-09-09T16:54:08.461Z,18.94
2022-09-09T16:56:38.766Z,18.95
2022-09-09T16:59:08.566Z,18.94
2022-09-09T17:01:38.832Z,18.91
2022-09-09T17:04:08.591Z,19.10
2022-09-09T17:06:38.929Z,19.02
2022-09-09T17:09:08.695Z,18.87
2022-09-09T17:11:39.285Z,18.79
2022-09-09T17:14:09.694Z,18.66
2022-09-09T17:16:37.939Z,18.62
2022-09-09T17:19:06.205Z,18.54
2022-09-09T17:21:34.634Z,18.54
2022-09-09T17:24:03.856Z,18.52
2022-09-09T17:26:34.003Z,18.48
2022-09-09T17:29:03.234Z,18.50
2022-09-09T17:31:31.689Z,18.49
2022-09-09T17:34:00.311Z,18.39
2022-09-09T17:36:31.070Z,18.33
2022-09-09T17:39:00.641Z,18.25
2022-09-09T17:41:31.477Z,18.24
2022-09-09T17:43:59.730Z,18.20
2022-09-09T17:46:31.181Z,18.22
2022-09-09T17:49:01.929Z,18.09
2022-09-09T17:51:32.019Z,18.06
2022-09-09T17:54:02.067Z,17.98
2022-09-09T17:56:33.613Z,17.93
2022-09-09T17:59:03.513Z,17.93
2022-09-09T18:01:33.171Z,17.92
2022-09-09T18:04:03.155Z,17.88
2022-09-09T18:06:34.450Z,17.92
2022-09-09T18:09:03.698Z,17.84
2022-09-09T18:11:35.274Z,17.81
2022-09-09T18:14:04.671Z,17.80
2022-09-09T18:16:36.006Z,17.74
2022-09-09T18:19:04.969Z,17.80
2022-09-09T18:21:34.079Z,17.71
2022-09-09T18:24:03.176Z,17.64
2022-09-09T18:26:33.607Z,17.62
2022-09-09T18:29:04.221Z,17.52
2022-09-09T18:31:32.154Z,17.48
2022-09-09T18:34:03.669Z,17.51
2022-09-09T18:36:34.004Z,17.47
2022-09-09T18:39:03.575Z,17.43
2022-09-09T18:41:34.785Z,17.52
2022-09-09T18:44:06.197Z,17.51
2022-09-09T18:46:35.576Z,17.62
2022-09-09T18:49:04.631Z,17.57
2022-09-09T18:51:33.485Z,17.46
2022-09-09T18:54:04.457Z,17.41
2022-09-09T18:56:33.347Z,17.42
2022-09-09T18:59:03.194Z,17.34
2022-09-09T19:01:31.776Z,17.28
2022-09-09T19:03:59.858Z,17.23
2022-09-09T19:06:30.481Z,17.21
2022-09-09T19:09:02.840Z,17.21
2022-09-09T19:11:30.903Z,17.23
2022-09-09T19:14:04.558Z,17.24
2022-09-09T19:16:34.318Z,17.15
2022-09-09T19:19:04.312Z,17.01
2022-09-09T19:21:35.574Z,17.10
2022-09-09T19:24:06.402Z,17.01
2022-09-09T19:26:40.394Z,17.06
2022-09-09T19:29:10.065Z,17.19
2022-09-09T19:31:38.823Z,17.08
2022-09-09T19:34:06.597Z,17.07
2022-09-09T19:36:34.210Z,16.96
2022-09-09T19:39:03.285Z,16.98
2022-09-09T19:41:32.468Z,16.93
2022-09-09T19:44:01.924Z,16.82
2022-09-09T19:46:32.419Z,16.70
2022-09-09T19:49:01.720Z,16.82
2022-09-09T19:51:30.714Z,16.76
2022-09-09T19:54:00.662Z,16.68
2022-09-09T19:56:29.356Z,16.51
2022-09-09T19:58:57.941Z,16.45
2022-09-09T20:01:27.452Z,16.36
2022-09-09T20:03:58.787Z,16.37
2022-09-09T20:06:29.188Z,16.29
2022-09-09T20:08:57.851Z,16.24
2022-09-09T20:11:26.275Z,16.18
2022-09-09T20:13:54.190Z,16.12
2022-09-09T20:16:24.493Z,16.08
2022-09-09T20:18:54.092Z,16.11
2022-09-09T20:21:26.105Z,16.06
2022-09-09T20:23:55.751Z,16.04
2022-09-09T20:26:26.015Z,16.07
2022-09-09T20:28:54.724Z,16.02
2022-09-09T20:31:24.838Z,15.98
2022-09-09T20:33:53.351Z,15.96
2022-09-09T20:36:27.838Z,15.96
2022-09-09T20:38:58.012Z,16.01
2022-09-09T20:41:28.428Z,15.96
2022-09-09T20:43:57.965Z,15.89
2022-09-09T20:46:28.152Z,15.87
2022-09-09T20:49:00.817Z,15.82
2022-09-09T20:51:33.730Z,15.81
2022-09-09T20:54:03.803Z,15.78
2022-09-09T20:56:33.876Z,15.87
2022-09-09T20:59:02.689Z,15.97
2022-09-09T21:01:30.733Z,16.03
2022-09-09T21:03:58.570Z,15.86
2022-09-09T21:06:26.175Z,15.74
2022-09-09T21:08:55.147Z,15.68
2022-09-09T21:11:22.746Z,15.66
2022-09-09T21:13:51.138Z,15.65
2022-09-09T21:16:21.131Z,15.72
2022-09-09T21:18:49.738Z,15.58
2022-09-09T21:21:19.406Z,15.59
2022-09-09T21:23:47.054Z,15.57
2022-09-09T21:26:17.785Z,15.60
2022-09-09T21:28:45.334Z,15.51
2022-09-09T21:31:15.037Z,15.37
2022-09-09T21:33:42.981Z,15.36
2022-09-09T21:36:12.443Z,15.37
2022-09-09T21:38:41.361Z,15.42
2022-09-09T21:41:12.786Z,15.46
2022-09-09T21:43:42.530Z,15.43
2022-09-09T21:46:10.906Z,15.39
2022-09-09T21:48:38.824Z,15.36
2022-09-09T21:51:08.830Z,15.36
2022-09-09T21:53:36.721Z,15.37
2022-09-09T21:56:07.159Z,15.30
2022-09-09T21:58:35.771Z,15.31
2022-09-09T22:01:10.254Z,15.40
2022-09-09T22:03:39.018Z,15.35
2022-09-09T22:06:08.412Z,15.38
2022-09-09T22:08:36.967Z,15.44
2022-09-09T22:11:10.483Z,15.40
2022-09-09T22:13:38.465Z,15.31
2022-09-09T22:16:09.297Z,15.31
2022-09-09T22:18:37.189Z,15.23
2022-09-09T22:21:07.277Z,15.21
2022-09-09T22:23:36.401Z,15.21
2022-09-09T22:26:04.743Z,15.17
2022-09-09T22:28:32.828Z,15.20
2022-09-09T22:31:00.816Z,15.23
2022-09-09T22:33:30.284Z,15.23
2022-09-09T22:35:57.815Z,15.22
2022-09-09T22:38:25.690Z,15.20
2022-09-09T22:40:53.910Z,15.19
2022-09-09T22:43:23.405Z,15.09
2022-09-09T22:45:52.253Z,15.00
2022-09-09T22:48:19.794Z,15.04
2022-09-09T22:50:48.701Z,14.99
2022-09-09T22:53:18.571Z,15.07
2022-09-09T22:55:58.476Z,15.12
2022-09-09T22:58:26.709Z,15.15
2022-09-09T23:00:58.622Z,15.04
2022-09-09T23:03:26.393Z,15.02
2022-09-09T23:05:57.418Z,15.05
2022-09-09T23:08:26.595Z,15.03
2022-09-09T23:10:55.455Z,14.95
2022-09-09T23:13:24.020Z,14.91
2022-09-09T23:15:52.231Z,14.87
2022-09-09T23:18:20.240Z,14.85
2022-09-09T23:21:00.392Z,14.84
2022-09-09T23:23:28.532Z,14.94
2022-09-09T23:25:56.241Z,15.07
2022-09-09T23:28:23.766Z,15.15
2022-09-09T23:30:51.530Z,15.16
2022-09-09T23:33:19.140Z,15.15
2022-09-09T23:35:46.927Z,15.17
2022-09-09T23:38:15.860Z,15.18
2022-09-09T23:40:47.885Z,15.20
2022-09-09T23:43:16.085Z,15.22
2022-09-09T23:45:43.869Z,15.23
2022-09-09T23:48:11.497Z,15.26
2022-09-09T23:50:39.149Z,15.27
2022-09-09T23:53:08.343Z,15.37
2022-09-09T23:55:37.355Z,15.38
2022-09-09T23:58:05.591Z,15.40
